METAR

Aeronautical MET Report METAR

METAR description (Slovak)

19.09.2018 - 06:30 UTC

METAR LZIB 190630Z 03005KT CAVOK 17/12 Q1021 NOSIG=
METAR LZKZ 190630Z 04003KT CAVOK 16/11 Q1022 NOSIG=
METAR LZPP 190630Z 01003KT 340V040 CAVOK 15/12 Q1022=
METAR LZSL 190630Z VRB01KT 9999 FEW003 11/09 Q1023=
METAR LZTT 190630Z VRB02KT CAVOK 13/10 Q1023 NOSIG=
METAR LZZI 190630Z 08004KT CAVOK 12/10 Q1022=

19.09.2018 - 06:00 UTC

METAR LZIB 190600Z 01003KT 330V030 CAVOK 14/11 Q1021 NOSIG=
METAR LZKZ 190600Z 02004KT CAVOK 14/10 Q1022 NOSIG=
METAR LZPP 190600Z 06003KT 010V090 CAVOK 13/11 Q1021=
METAR LZSL 190600Z 00000KT 9999 FEW003 10/08 Q1023=
METAR LZTT 190600Z VRB01KT CAVOK 12/09 Q1023 NOSIG=
METAR LZZI 190600Z 08004KT CAVOK 11/09 Q1022=

19.09.2018 - 06:00 UTC

METAR LZMC 190600Z 20004KT CAVOK 17/10 Q1021=
METAR LZPW 190600Z 00000KT 9999 FEW001 11/10 Q1023=

 

 

skok na menu ↑


skok na začiatok stránky ↑